createdAt,value
2023-04-14T00:00:34.722Z,21.80
2023-04-14T00:03:01.628Z,19.75
2023-04-14T00:05:29.925Z,23.27
2023-04-14T00:07:56.689Z,23.00
2023-04-14T00:10:23.934Z,15.85
2023-04-14T00:12:50.787Z,20.85
2023-04-14T00:15:17.707Z,26.40
2023-04-14T00:17:44.773Z,17.83
2023-04-14T00:20:11.532Z,19.63
2023-04-14T00:22:38.385Z,22.88
2023-04-14T00:25:05.388Z,19.17
2023-04-14T00:27:32.125Z,22.15
2023-04-14T00:29:58.750Z,15.95
2023-04-14T00:32:25.409Z,19.92
2023-04-14T00:34:52.040Z,20.10
2023-04-14T00:37:18.895Z,17.08
2023-04-14T00:39:45.617Z,24.98
2023-04-14T00:42:12.249Z,20.10
2023-04-14T00:44:38.824Z,20.05
2023-04-14T00:47:05.655Z,22.92
2023-04-14T00:49:32.610Z,17.25
2023-04-14T00:51:59.598Z,21.17
2023-04-14T00:54:28.076Z,22.58
2023-04-14T00:56:57.369Z,16.40
2023-04-14T00:59:24.147Z,17.85
2023-04-14T01:01:50.946Z,20.52
2023-04-14T01:04:20.305Z,16.45
2023-04-14T01:06:47.026Z,17.00
2023-04-14T01:09:15.911Z,16.08
2023-04-14T01:11:54.139Z,14.27
2023-04-14T01:14:45.021Z,20.77
2023-04-14T01:17:45.643Z,18.75
2023-04-14T01:20:24.185Z,14.20
2023-04-14T01:23:11.861Z,20.13
2023-04-14T01:25:57.031Z,18.38
2023-04-14T01:28:49.549Z,15.73
2023-04-14T01:31:29.694Z,21.13
2023-04-14T01:34:06.503Z,18.20
2023-04-14T01:36:46.371Z,14.88
2023-04-14T01:39:21.430Z,15.70
2023-04-14T01:41:52.361Z,20.17
2023-04-14T01:44:22.328Z,21.88
2023-04-14T01:46:55.572Z,18.35
2023-04-14T01:49:24.480Z,18.58
2023-04-14T01:51:53.012Z,17.23
2023-04-14T01:54:21.491Z,19.63
2023-04-14T01:56:51.136Z,14.50
2023-04-14T01:59:20.825Z,16.73
2023-04-14T02:01:50.977Z,18.85
2023-04-14T02:04:22.796Z,19.25
2023-04-14T02:06:51.590Z,18.95
2023-04-14T02:09:20.956Z,14.65
2023-04-14T02:11:50.458Z,19.85
2023-04-14T02:14:19.047Z,20.98
2023-04-14T02:16:48.476Z,19.00
2023-04-14T02:19:20.333Z,17.00
2023-04-14T02:21:49.835Z,16.52
2023-04-14T02:24:17.305Z,18.92
2023-04-14T02:27:06.900Z,16.67
2023-04-14T02:29:35.216Z,18.60
2023-04-14T02:32:09.652Z,17.52
2023-04-14T02:34:44.071Z,15.75
2023-04-14T02:37:19.178Z,19.15
2023-04-14T02:39:53.606Z,16.58
2023-04-14T02:42:26.226Z,20.38
2023-04-14T02:45:02.668Z,22.17
2023-04-14T02:47:35.939Z,20.88
2023-04-14T02:50:05.824Z,13.02
2023-04-14T02:52:37.751Z,17.45
2023-04-14T02:55:08.088Z,19.67
2023-04-14T02:57:35.587Z,18.45
2023-04-14T03:00:03.780Z,20.25
2023-04-14T03:02:36.685Z,19.40
2023-04-14T03:05:08.903Z,20.05
2023-04-14T03:07:55.882Z,28.85
2023-04-14T03:10:24.660Z,21.85
2023-04-14T03:12:52.921Z,22.60
2023-04-14T03:15:22.551Z,26.23
2023-04-14T03:17:54.216Z,17.58
2023-04-14T03:20:23.401Z,25.13
2023-04-14T03:23:01.346Z,31.65
2023-04-14T03:25:38.151Z,19.02
2023-04-14T03:28:14.826Z,19.35
2023-04-14T03:30:47.513Z,31.23
2023-04-14T03:33:20.784Z,20.38
2023-04-14T03:35:48.573Z,23.25
2023-04-14T03:38:16.258Z,24.15
2023-04-14T03:40:47.831Z,30.70
2023-04-14T03:43:22.434Z,22.27
2023-04-14T03:45:56.966Z,20.88
2023-04-14T03:48:29.946Z,25.85
2023-04-14T03:50:59.923Z,22.08
2023-04-14T03:55:59.940Z,19.95
2023-04-14T03:58:29.909Z,17.70
2023-04-14T04:00:57.476Z,18.02
2023-04-14T04:03:25.969Z,21.52
2023-04-14T04:05:53.814Z,24.70
2023-04-14T04:08:22.451Z,22.98
2023-04-14T04:10:49.884Z,19.00
2023-04-14T04:13:19.361Z,18.77
2023-04-14T04:15:50.391Z,17.63
2023-04-14T04:18:18.496Z,25.45
2023-04-14T04:20:47.093Z,19.85
2023-04-14T04:23:16.929Z,20.95
2023-04-14T04:25:44.422Z,16.70
2023-04-14T04:28:20.262Z,21.30
2023-04-14T04:30:48.875Z,18.80
2023-04-14T04:33:16.929Z,20.17
2023-04-14T04:35:44.111Z,18.13
2023-04-14T04:38:11.459Z,21.02
2023-04-14T04:40:41.330Z,21.20
2023-04-14T04:43:19.054Z,18.00
2023-04-14T04:45:52.027Z,21.77
2023-04-14T04:48:18.837Z,22.83
2023-04-14T04:50:45.582Z,17.98
2023-04-14T04:53:12.367Z,18.80
2023-04-14T04:55:41.197Z,19.38
2023-04-14T04:58:11.268Z,21.05
2023-04-14T05:00:37.831Z,24.65
2023-04-14T05:03:04.511Z,21.88
2023-04-14T05:05:35.515Z,25.50
2023-04-14T05:08:02.522Z,21.88
2023-04-14T05:10:29.108Z,21.83
2023-04-14T05:12:55.679Z,21.95
2023-04-14T05:15:22.295Z,23.42
2023-04-14T05:17:48.914Z,23.65
2023-04-14T05:20:15.524Z,25.52
2023-04-14T05:22:42.153Z,21.45
2023-04-14T05:25:09.634Z,19.33
2023-04-14T05:27:36.352Z,23.02
2023-04-14T05:30:03.834Z,24.58
2023-04-14T05:32:30.688Z,20.80
2023-04-14T05:34:58.285Z,18.35
2023-04-14T05:37:24.911Z,21.20
2023-04-14T05:39:51.781Z,23.48
2023-04-14T05:42:18.398Z,28.55
2023-04-14T05:44:45.244Z,22.42
2023-04-14T05:47:11.809Z,16.80
2023-04-14T05:49:38.403Z,20.20
2023-04-14T05:52:05.502Z,15.63
2023-04-14T05:54:32.028Z,22.83
2023-04-14T05:56:58.924Z,20.48
2023-04-14T05:59:25.646Z,18.55
2023-04-14T06:01:52.366Z,25.92
2023-04-14T06:04:19.269Z,28.52
2023-04-14T06:06:46.111Z,17.63
2023-04-14T06:09:12.696Z,22.67
2023-04-14T06:11:39.781Z,22.35
2023-04-14T06:14:07.540Z,24.80
2023-04-14T06:16:34.321Z,20.70
2023-04-14T06:19:01.650Z,19.65
2023-04-14T06:21:28.550Z,18.40
2023-04-14T06:23:55.422Z,19.35
2023-04-14T06:26:22.415Z,20.75
2023-04-14T06:28:49.092Z,19.83
2023-04-14T06:31:15.750Z,19.92
2023-04-14T06:33:42.439Z,19.40
2023-04-14T06:36:09.252Z,23.90
2023-04-14T06:38:35.846Z,19.27
2023-04-14T06:41:02.520Z,22.33
2023-04-14T06:43:29.147Z,24.20
2023-04-14T06:45:55.942Z,18.17
2023-04-14T06:48:22.665Z,20.13
2023-04-14T06:50:56.442Z,22.92
2023-04-14T06:53:23.715Z,18.05
2023-04-14T06:55:59.639Z,17.88
2023-04-14T06:58:27.680Z,18.67
2023-04-14T07:00:58.907Z,15.77
2023-04-14T07:03:27.084Z,20.40
2023-04-14T07:05:54.482Z,18.58
2023-04-14T07:08:21.677Z,17.20
2023-04-14T07:10:48.253Z,22.92
2023-04-14T07:13:14.849Z,19.98
2023-04-14T07:15:46.479Z,12.85
2023-04-14T07:18:13.110Z,16.00
2023-04-14T07:20:39.706Z,22.30
2023-04-14T07:23:06.332Z,17.27
2023-04-14T07:25:36.622Z,16.25
2023-04-14T07:28:04.518Z,16.88
2023-04-14T07:30:31.681Z,16.50
2023-04-14T07:32:58.368Z,18.67
2023-04-14T07:35:26.311Z,24.48
2023-04-14T07:37:53.000Z,21.58
2023-04-14T07:40:20.275Z,16.85
2023-04-14T07:42:47.582Z,23.75
2023-04-14T07:45:14.182Z,21.35
2023-04-14T07:47:40.925Z,17.42
2023-04-14T07:50:08.479Z,19.65
2023-04-14T07:52:35.243Z,18.15
2023-04-14T07:55:01.817Z,12.80
2023-04-14T07:57:28.414Z,14.15
2023-04-14T07:59:54.955Z,14.48
2023-04-14T08:02:22.218Z,16.88
2023-04-14T08:04:48.872Z,14.90
2023-04-14T08:07:16.130Z,10.18
2023-04-14T08:09:43.431Z,14.35
2023-04-14T08:12:10.013Z,15.23
2023-04-14T08:14:36.869Z,12.15
2023-04-14T08:17:03.447Z,10.43
2023-04-14T08:19:31.454Z,17.00
2023-04-14T08:21:58.102Z,19.45
2023-04-14T08:24:24.792Z,20.63
2023-04-14T08:26:51.639Z,11.10
2023-04-14T08:29:18.277Z,13.10
2023-04-14T08:31:44.939Z,10.95
2023-04-14T08:34:11.725Z,14.13
2023-04-14T08:36:39.002Z,15.63
2023-04-14T08:39:05.744Z,18.85
2023-04-14T08:41:41.493Z,15.82
2023-04-14T08:44:08.733Z,12.30
2023-04-14T08:46:36.257Z,12.40
2023-04-14T08:49:08.161Z,13.63
2023-04-14T08:51:36.584Z,11.63
2023-04-14T08:54:08.148Z,9.65
2023-04-14T08:56:39.826Z,13.95
2023-04-14T08:59:07.673Z,14.45
2023-04-14T09:01:36.120Z,13.43
2023-04-14T09:04:04.827Z,10.05
2023-04-14T09:06:32.914Z,11.80
2023-04-14T09:09:05.224Z,9.43
2023-04-14T09:11:32.108Z,15.05
2023-04-14T09:13:59.711Z,16.45
2023-04-14T09:16:29.218Z,17.63
2023-04-14T09:18:58.049Z,11.02
2023-04-14T09:21:53.559Z,13.60
2023-04-14T09:24:24.993Z,17.55
2023-04-14T09:26:52.093Z,11.55
2023-04-14T09:29:18.885Z,15.90
2023-04-14T09:31:46.053Z,14.88
2023-04-14T09:34:20.525Z,12.60
2023-04-14T09:37:07.627Z,10.43
2023-04-14T09:39:35.784Z,18.60
2023-04-14T09:42:03.969Z,14.77
2023-04-14T09:44:31.015Z,20.80
2023-04-14T09:47:05.155Z,13.57
2023-04-14T09:49:33.065Z,13.43
2023-04-14T09:52:08.351Z,11.50
2023-04-14T09:54:36.072Z,21.17
2023-04-14T09:57:02.826Z,12.43
2023-04-14T09:59:32.186Z,18.75
2023-04-14T10:02:00.281Z,14.27
2023-04-14T10:04:28.311Z,15.88
2023-04-14T10:06:56.719Z,14.82
2023-04-14T10:09:24.732Z,14.52
2023-04-14T10:12:12.565Z,11.40
2023-04-14T10:14:43.935Z,15.55
2023-04-14T10:17:11.397Z,11.45
2023-04-14T10:19:38.821Z,9.95
2023-04-14T10:22:06.234Z,14.35
2023-04-14T10:24:33.161Z,13.70
2023-04-14T10:27:02.765Z,19.15
2023-04-14T10:29:30.814Z,21.88
2023-04-14T10:32:05.498Z,15.85
2023-04-14T10:34:37.511Z,18.65
2023-04-14T10:37:15.853Z,14.00
2023-04-14T10:39:42.968Z,17.88
2023-04-14T10:42:09.864Z,20.50
2023-04-14T10:44:37.098Z,15.95
2023-04-14T10:47:10.101Z,16.25
2023-04-14T10:49:38.881Z,15.60
2023-04-14T10:52:13.436Z,14.40
2023-04-14T10:54:50.015Z,18.35
2023-04-14T10:57:18.513Z,16.85
2023-04-14T10:59:49.263Z,16.75
2023-04-14T11:02:53.946Z,15.70
2023-04-14T11:05:21.340Z,15.25
2023-04-14T11:07:51.661Z,19.65
2023-04-14T11:10:21.488Z,14.98
2023-04-14T11:13:11.110Z,15.82
2023-04-14T11:15:44.030Z,15.00
2023-04-14T11:18:17.863Z,11.35
2023-04-14T11:20:44.606Z,18.88
2023-04-14T11:23:14.102Z,19.75
2023-04-14T11:28:08.080Z,14.93
2023-04-14T11:30:34.921Z,12.10
2023-04-14T11:33:01.783Z,13.35
2023-04-14T11:35:29.707Z,12.25
2023-04-14T11:37:57.821Z,15.82
2023-04-14T11:40:26.581Z,20.63
2023-04-14T11:42:56.233Z,18.90
2023-04-14T11:45:27.720Z,10.57
2023-04-14T11:47:59.272Z,13.90
2023-04-14T11:50:27.454Z,11.32
2023-04-14T11:52:59.949Z,9.50
2023-04-14T11:55:27.359Z,10.85
2023-04-14T11:57:55.282Z,11.73
2023-04-14T12:00:22.132Z,14.50
2023-04-14T12:02:49.235Z,11.63
2023-04-14T12:05:31.301Z,13.10
2023-04-14T12:08:03.699Z,10.05
2023-04-14T12:10:31.639Z,6.38
2023-04-14T12:13:07.076Z,14.10
2023-04-14T12:15:38.860Z,12.35
2023-04-14T12:21:53.314Z,10.00
2023-04-14T12:24:20.518Z,15.43
2023-04-14T12:26:47.060Z,9.40
2023-04-14T12:29:13.956Z,8.02
2023-04-14T12:31:44.344Z,12.23
2023-04-14T12:34:14.879Z,10.35
2023-04-14T12:36:50.258Z,10.25
2023-04-14T12:39:17.518Z,8.68
2023-04-14T12:41:44.437Z,10.40
2023-04-14T12:44:21.280Z,9.82
2023-04-14T12:46:51.496Z,9.88
2023-04-14T12:49:31.958Z,10.68
2023-04-14T12:51:58.617Z,11.85
2023-04-14T12:54:25.755Z,15.52
2023-04-14T12:56:53.306Z,8.10
2023-04-14T12:59:19.854Z,8.23
2023-04-14T13:01:46.490Z,11.30
2023-04-14T13:04:13.201Z,11.98
2023-04-14T13:06:39.827Z,17.25
2023-04-14T13:09:06.503Z,6.00
2023-04-14T13:11:33.295Z,7.57
2023-04-14T13:13:59.892Z,10.90
2023-04-14T13:16:26.518Z,20.13
2023-04-14T13:18:54.184Z,7.45
2023-04-14T13:21:20.695Z,8.55
2023-04-14T13:23:47.265Z,13.75
2023-04-14T13:26:13.890Z,12.05
2023-04-14T13:28:40.504Z,21.30
2023-04-14T13:31:07.379Z,12.75
2023-04-14T13:33:34.138Z,8.95
2023-04-14T13:36:04.311Z,9.00
2023-04-14T13:38:31.376Z,10.98
2023-04-14T13:40:58.002Z,20.23
2023-04-14T13:43:24.708Z,16.33
2023-04-14T13:45:51.710Z,6.20
2023-04-14T13:48:18.711Z,8.23
2023-04-14T13:50:46.928Z,10.18
2023-04-14T13:53:13.633Z,12.30
2023-04-14T13:55:41.583Z,8.90
2023-04-14T13:58:08.179Z,8.13
2023-04-14T14:00:34.892Z,7.57
2023-04-14T14:03:01.698Z,8.75
2023-04-14T14:05:28.702Z,9.68
2023-04-14T14:07:58.614Z,10.80
2023-04-14T14:10:25.343Z,9.05
2023-04-14T14:12:51.969Z,8.05
2023-04-14T14:15:18.778Z,13.18
2023-04-14T14:17:45.390Z,9.63
2023-04-14T14:20:12.057Z,7.80
2023-04-14T14:22:38.728Z,8.85
2023-04-14T14:25:18.420Z,7.63
2023-04-14T14:27:46.925Z,7.63
2023-04-14T14:30:14.288Z,9.32
2023-04-14T14:32:40.861Z,7.88
2023-04-14T14:35:08.431Z,7.45
2023-04-14T14:37:35.261Z,6.93
2023-04-14T14:40:01.926Z,10.48
2023-04-14T14:42:28.529Z,9.98
2023-04-14T14:44:55.285Z,9.77
2023-04-14T14:47:21.909Z,8.35
2023-04-14T14:49:59.098Z,8.52
2023-04-14T14:52:31.590Z,7.77
2023-04-14T14:54:58.227Z,8.20
2023-04-14T14:57:25.900Z,7.05
2023-04-14T14:59:52.852Z,9.07
2023-04-14T15:02:20.888Z,9.75
2023-04-14T15:04:48.199Z,10.25
2023-04-14T15:07:15.070Z,6.85
2023-04-14T15:09:41.664Z,8.07
2023-04-14T15:12:08.273Z,10.73
2023-04-14T15:14:34.882Z,5.78
2023-04-14T15:17:02.440Z,7.55
2023-04-14T15:19:29.223Z,5.05
2023-04-14T15:21:55.809Z,5.68
2023-04-14T15:24:22.367Z,8.98
2023-04-14T15:26:49.001Z,7.32
2023-04-14T15:29:16.208Z,7.78
2023-04-14T15:31:42.783Z,10.00
2023-04-14T15:34:09.430Z,7.78
2023-04-14T15:36:36.007Z,7.65
2023-04-14T15:39:02.609Z,11.25
2023-04-14T15:41:29.137Z,11.48
2023-04-14T15:43:55.785Z,9.63
2023-04-14T15:46:22.311Z,7.68
2023-04-14T15:48:48.894Z,6.93
2023-04-14T15:51:15.485Z,8.73
2023-04-14T15:53:42.093Z,8.55
2023-04-14T15:56:08.632Z,8.05
2023-04-14T15:58:35.319Z,6.65
2023-04-14T16:01:06.833Z,6.85
2023-04-14T16:03:33.709Z,7.07
2023-04-14T16:06:02.535Z,7.18
2023-04-14T16:08:29.306Z,7.05
2023-04-14T16:10:56.193Z,12.02
2023-04-14T16:13:22.785Z,10.02
2023-04-14T16:15:49.384Z,12.35
2023-04-14T16:18:15.966Z,7.75
2023-04-14T16:20:42.529Z,5.00
2023-04-14T16:23:09.051Z,6.90
2023-04-14T16:25:35.746Z,7.05
2023-04-14T16:28:02.320Z,7.95
2023-04-14T16:30:28.821Z,7.00
2023-04-14T16:32:55.463Z,5.25
2023-04-14T16:35:22.095Z,7.20
2023-04-14T16:37:48.657Z,5.68
2023-04-14T16:40:15.220Z,9.80
2023-04-14T16:42:41.884Z,5.32
2023-04-14T16:45:09.315Z,6.10
2023-04-14T16:47:36.039Z,9.85
2023-04-14T16:50:02.804Z,5.95
2023-04-14T16:52:30.460Z,5.32
2023-04-14T16:54:57.614Z,5.80
2023-04-14T16:57:25.537Z,6.15
2023-04-14T16:59:52.214Z,6.72
2023-04-14T17:02:18.894Z,8.32
2023-04-14T17:04:45.942Z,6.05
2023-04-14T17:07:12.722Z,5.00
2023-04-14T17:09:39.371Z,7.15
2023-04-14T17:12:05.992Z,5.68
2023-04-14T17:14:32.610Z,6.30
2023-04-14T17:16:59.149Z,5.28
2023-04-14T17:19:26.429Z,7.18
2023-04-14T17:21:53.148Z,4.45
2023-04-14T17:24:19.708Z,3.65
2023-04-14T17:26:46.263Z,3.53
2023-04-14T17:29:12.807Z,3.63
2023-04-14T17:31:40.028Z,8.57
2023-04-14T17:34:10.698Z,9.38
2023-04-14T17:36:39.170Z,11.32
2023-04-14T17:39:06.755Z,9.65
2023-04-14T17:41:33.769Z,8.90
2023-04-14T17:44:00.698Z,9.63
2023-04-14T17:46:33.502Z,10.05
2023-04-14T17:49:04.145Z,9.10
2023-04-14T17:51:31.448Z,6.97
2023-04-14T17:53:58.123Z,6.85
2023-04-14T17:56:25.392Z,5.82
2023-04-14T17:58:52.449Z,5.85
2023-04-14T18:01:19.672Z,5.50
2023-04-14T18:03:46.394Z,2.83
2023-04-14T18:06:13.490Z,8.85
2023-04-14T18:08:40.055Z,6.97
2023-04-14T18:11:07.191Z,6.38
2023-04-14T18:13:34.551Z,6.00
2023-04-14T18:16:01.792Z,8.70
2023-04-14T18:18:28.475Z,7.47
2023-04-14T18:20:55.071Z,10.63
2023-04-14T18:23:22.287Z,9.50
2023-04-14T18:28:28.539Z,9.73
2023-04-14T18:30:55.881Z,9.75
2023-04-14T18:33:22.688Z,8.63
2023-04-14T18:35:53.824Z,6.95
2023-04-14T18:38:21.149Z,11.57
2023-04-14T18:40:48.347Z,9.95
2023-04-14T18:43:15.683Z,6.25
2023-04-14T18:45:47.307Z,8.80
2023-04-14T18:48:17.276Z,7.90
2023-04-14T18:50:44.357Z,8.80
2023-04-14T18:53:12.053Z,9.85
2023-04-14T18:55:44.817Z,6.32
2023-04-14T18:58:13.000Z,10.93
2023-04-14T19:00:40.161Z,16.05
2023-04-14T19:03:08.799Z,11.82
2023-04-14T19:05:36.964Z,6.07
2023-04-14T19:08:04.532Z,5.97
2023-04-14T19:10:31.485Z,6.20
2023-04-14T19:12:58.149Z,5.53
2023-04-14T19:15:28.584Z,7.15
2023-04-14T19:17:55.804Z,6.93
2023-04-14T19:20:22.874Z,6.80
2023-04-14T19:22:50.407Z,5.85
2023-04-14T19:25:17.194Z,5.72
2023-04-14T19:27:43.886Z,5.28
2023-04-14T19:30:11.452Z,5.20
2023-04-14T19:32:38.062Z,4.75
2023-04-14T19:35:07.750Z,6.93
2023-04-14T19:37:35.362Z,8.40
2023-04-14T19:40:06.019Z,10.82
2023-04-14T19:42:33.334Z,11.40
2023-04-14T19:45:00.456Z,10.90
2023-04-14T19:47:27.323Z,8.82
2023-04-14T19:49:54.966Z,11.30
2023-04-14T19:52:22.199Z,9.13
2023-04-14T19:54:49.512Z,8.15
2023-04-14T19:57:16.673Z,9.60
2023-04-14T19:59:43.377Z,7.50
2023-04-14T20:02:13.055Z,12.60
2023-04-14T20:04:40.118Z,9.93
2023-04-14T20:07:06.955Z,11.80
2023-04-14T20:09:33.582Z,12.02
2023-04-14T20:12:02.214Z,11.60
2023-04-14T20:14:29.356Z,10.77
2023-04-14T20:16:56.536Z,9.15
2023-04-14T20:19:24.069Z,12.20
2023-04-14T20:21:50.905Z,12.23
2023-04-14T20:24:18.124Z,10.27
2023-04-14T20:26:45.026Z,14.43
2023-04-14T20:29:12.321Z,13.73
2023-04-14T20:31:39.695Z,9.65
2023-04-14T20:34:06.314Z,16.92
2023-04-14T20:36:36.083Z,12.80
2023-04-14T20:39:05.672Z,13.93
2023-04-14T20:41:33.407Z,13.77
2023-04-14T20:44:00.510Z,13.45
2023-04-14T20:46:27.159Z,10.52
2023-04-14T20:48:53.805Z,10.52
2023-04-14T20:51:20.365Z,8.82
2023-04-14T20:53:46.885Z,10.57
2023-04-14T20:56:13.391Z,9.55
2023-04-14T20:58:40.004Z,8.25
2023-04-14T21:01:06.594Z,9.65
2023-04-14T21:03:34.903Z,8.35
2023-04-14T21:06:01.932Z,8.43
2023-04-14T21:08:29.895Z,6.45
2023-04-14T21:11:15.924Z,7.93
2023-04-14T21:15:26.764Z,9.32
2023-04-14T21:16:30.108Z,12.52
2023-04-14T21:18:57.312Z,11.77
2023-04-14T21:21:23.866Z,14.25
2023-04-14T21:23:50.713Z,15.43
2023-04-14T21:26:17.662Z,14.52
2023-04-14T21:28:44.262Z,15.52
2023-04-14T21:31:11.310Z,13.52
2023-04-14T21:33:39.909Z,11.40
2023-04-14T21:36:07.002Z,10.82
2023-04-14T21:38:33.725Z,13.60
2023-04-14T21:41:00.812Z,12.77
2023-04-14T21:43:27.422Z,10.52
2023-04-14T21:45:54.475Z,12.30
2023-04-14T21:48:21.076Z,13.15
2023-04-14T21:50:47.656Z,11.15
2023-04-14T21:53:14.287Z,10.30
2023-04-14T21:55:41.120Z,10.75
2023-04-14T21:58:07.704Z,10.27
2023-04-14T22:00:34.687Z,8.73
2023-04-14T22:03:01.598Z,8.20
2023-04-14T22:05:28.528Z,9.98
2023-04-14T22:07:55.276Z,8.82
2023-04-14T22:10:22.049Z,7.93
2023-04-14T22:12:49.151Z,8.80
2023-04-14T22:15:16.695Z,10.52
2023-04-14T22:17:43.976Z,7.75
2023-04-14T22:20:10.927Z,9.02
2023-04-14T22:22:37.478Z,7.75
2023-04-14T22:25:04.449Z,7.25
2023-04-14T22:27:32.057Z,8.50
2023-04-14T22:29:58.919Z,9.35
2023-04-14T22:32:25.711Z,6.68
2023-04-14T22:34:52.243Z,7.93
2023-04-14T22:37:18.780Z,7.70
2023-04-14T22:39:45.702Z,7.38
2023-04-14T22:42:13.036Z,8.95
2023-04-14T22:44:39.530Z,9.40
2023-04-14T22:47:06.068Z,8.07
2023-04-14T22:49:32.698Z,9.73
2023-04-14T22:51:59.259Z,8.02
2023-04-14T22:54:26.093Z,9.23
2023-04-14T22:56:53.778Z,9.45
2023-04-14T22:59:20.414Z,9.80
2023-04-14T23:01:48.209Z,8.77
2023-04-14T23:04:15.063Z,8.00
2023-04-14T23:06:41.690Z,9.73
2023-04-14T23:09:08.270Z,12.75
2023-04-14T23:11:34.873Z,14.73
2023-04-14T23:14:01.478Z,9.50
2023-04-14T23:16:28.239Z,12.73
2023-04-14T23:18:54.989Z,11.48
2023-04-14T23:21:22.300Z,24.30
2023-04-14T23:23:49.875Z,17.92
2023-04-14T23:26:19.343Z,13.18
2023-04-14T23:28:46.091Z,17.92
2023-04-14T23:31:12.879Z,23.02
2023-04-14T23:33:40.369Z,14.85
2023-04-14T23:36:07.592Z,10.82
2023-04-14T23:38:34.384Z,12.18
2023-04-14T23:41:01.463Z,15.40
2023-04-14T23:43:29.065Z,11.63
2023-04-14T23:45:55.937Z,8.82
2023-04-14T23:48:22.815Z,11.88
2023-04-14T23:51:00.703Z,12.85
2023-04-14T23:53:36.081Z,9.75
2023-04-14T23:56:04.214Z,10.43
2023-04-14T23:58:31.625Z,10.85
